Terminal Aerodrome Forecast
Issued by NWS Boston, MA

Home | Current Version | Previous Version | Text Only | Print | Product List | Glossary On
Versions: 1 2 3 4 5 6 7 8 9 10 11 12 13 14 15 16 17 18 19 20 21 22 23 24 25 26 27 28 29 30 31 32 33 34 35 36 37 38 39 40 41 42 43 44 45 46 47
000
FTUS41 KBOX 030307 AAA
TAFBDL
TAF AMD
KBDL 030307Z 0303/0406 19008KT P6SM FEW100
     FM030400 17005KT P6SM BKN110
     FM030600 VRB03KT P6SM BKN035
     FM030800 36005KT P6SM BKN080
     FM040100 00000KT P6SM SKC=

USA.gov is the U.S. government's official web portal to all federal, state and local government web resources and services.